createdAt,value
2016-12-07T00:00:45.528Z,0
2016-12-07T00:01:45.544Z,0
2016-12-07T00:02:45.565Z,0
2016-12-07T00:03:45.586Z,0
2016-12-07T00:04:45.591Z,0
2016-12-07T00:06:00.533Z,0
2016-12-07T00:07:00.547Z,0
2016-12-07T00:07:45.645Z,0
2016-12-07T00:08:45.653Z,0
2016-12-07T00:09:45.676Z,0
2016-12-07T00:10:45.696Z,0
2016-12-07T00:11:45.704Z,0
2016-12-07T00:12:45.726Z,0
2016-12-07T00:13:45.739Z,0
2016-12-07T00:15:00.677Z,0
2016-12-07T00:15:45.775Z,0
2016-12-07T00:16:45.788Z,0
2016-12-07T00:19:00.736Z,0
2016-12-07T00:19:45.838Z,0
2016-12-07T00:21:00.773Z,0
2016-12-07T00:21:45.873Z,0
2016-12-07T00:23:00.813Z,0
2016-12-07T00:23:45.896Z,0
2016-12-07T00:25:00.841Z,0
2016-12-07T00:25:45.936Z,0
2016-12-07T00:26:46.263Z,0
2016-12-07T00:27:45.964Z,0
2016-12-07T00:28:46.006Z,0
2016-12-07T00:29:46.295Z,0
2016-12-07T00:30:46.016Z,0
2016-12-07T00:31:46.034Z,0
2016-12-07T00:32:46.053Z,0
2016-12-07T00:33:46.064Z,0
2016-12-07T00:34:46.082Z,0
2016-12-07T00:35:46.103Z,0
2016-12-07T00:36:46.114Z,0
2016-12-07T00:38:01.048Z,0
2016-12-07T00:39:46.174Z,0
2016-12-07T00:41:01.408Z,0
2016-12-07T00:41:46.185Z,0
2016-12-07T00:42:46.202Z,0
2016-12-07T00:44:01.149Z,0
2016-12-07T00:44:46.607Z,0
2016-12-07T00:46:46.276Z,0
2016-12-07T00:47:46.294Z,0
2016-12-07T00:48:46.313Z,0
2016-12-07T00:49:46.328Z,0
2016-12-07T00:50:46.335Z,0
2016-12-07T00:51:46.690Z,0
2016-12-07T00:52:46.376Z,0
2016-12-07T00:54:01.308Z,0
2016-12-07T00:54:46.407Z,0
2016-12-07T00:55:46.735Z,0
2016-12-07T00:56:46.437Z,0
2016-12-07T00:58:01.376Z,0
2016-12-07T00:58:46.477Z,0
2016-12-07T00:59:46.476Z,0
2016-12-07T01:00:46.501Z,0
2016-12-07T01:02:01.441Z,0
2016-12-07T01:02:46.536Z,0
2016-12-07T01:03:46.548Z,0
2016-12-07T01:04:46.568Z,0
2016-12-07T01:06:01.513Z,0
2016-12-07T01:06:46.628Z,0
2016-12-07T01:08:01.544Z,0
2016-12-07T01:08:46.632Z,0
2016-12-07T01:09:46.653Z,0
2016-12-07T01:10:46.677Z,0
2016-12-07T01:11:46.674Z,0
2016-12-07T01:12:46.750Z,0
2016-12-07T01:14:01.630Z,0
2016-12-07T01:14:46.753Z,0
2016-12-07T01:15:46.748Z,0
2016-12-07T01:17:01.687Z,0
2016-12-07T01:17:46.778Z,0
2016-12-07T01:18:46.806Z,0
2016-12-07T01:19:46.812Z,0
2016-12-07T01:20:46.828Z,0
2016-12-07T01:22:01.767Z,0
2016-12-07T01:23:01.779Z,0
2016-12-07T01:23:46.875Z,0
2016-12-07T01:24:46.892Z,0
2016-12-07T01:26:01.826Z,0
2016-12-07T01:26:46.935Z,0
2016-12-07T01:27:46.943Z,0
2016-12-07T01:29:01.872Z,0
2016-12-07T01:29:46.983Z,0
2016-12-07T01:30:46.987Z,0
2016-12-07T01:31:47.013Z,0
2016-12-07T01:32:47.017Z,0
2016-12-07T01:33:47.040Z,0
2016-12-07T01:34:47.202Z,0
2016-12-07T01:35:47.070Z,0
2016-12-07T01:36:47.084Z,0
2016-12-07T01:37:47.098Z,0
2016-12-07T01:39:02.047Z,0
2016-12-07T01:39:47.131Z,0
2016-12-07T01:40:47.446Z,0
2016-12-07T01:42:02.091Z,0
2016-12-07T01:42:47.189Z,0
2016-12-07T01:44:02.145Z,0
2016-12-07T01:44:47.215Z,0
2016-12-07T01:45:47.542Z,0
2016-12-07T01:46:47.255Z,0
2016-12-07T01:47:47.265Z,0
2016-12-07T01:49:02.204Z,0
2016-12-07T01:49:47.301Z,0
2016-12-07T01:50:47.603Z,0
2016-12-07T01:51:47.323Z,0
2016-12-07T01:52:47.338Z,0
2016-12-07T01:54:47.383Z,0
2016-12-07T01:55:47.418Z,0
2016-12-07T01:56:47.401Z,0
2016-12-07T01:58:02.344Z,0
2016-12-07T01:58:47.453Z,0
2016-12-07T02:00:02.372Z,0
2016-12-07T02:00:48.029Z,0
2016-12-07T02:02:47.503Z,0
2016-12-07T02:03:47.515Z,0
2016-12-07T02:04:47.532Z,0
2016-12-07T02:06:02.474Z,0
2016-12-07T02:06:47.565Z,0
2016-12-07T02:07:47.586Z,0
2016-12-07T02:08:47.594Z,0
2016-12-07T02:09:47.616Z,0
2016-12-07T02:10:47.683Z,0
2016-12-07T02:12:02.571Z,0
2016-12-07T02:12:47.666Z,0
2016-12-07T02:14:02.634Z,0
2016-12-07T02:15:02.621Z,0
2016-12-07T02:16:47.723Z,0
2016-12-07T02:17:47.744Z,0
2016-12-07T02:18:47.757Z,0
2016-12-07T02:19:47.774Z,0
2016-12-07T02:20:47.847Z,0
2016-12-07T02:21:47.806Z,0
2016-12-07T02:22:47.817Z,0
2016-12-07T02:23:47.841Z,0
2016-12-07T02:24:47.855Z,0
2016-12-07T02:25:47.871Z,0
2016-12-07T02:26:47.889Z,0
2016-12-07T02:27:47.910Z,0
2016-12-07T02:29:02.841Z,0
2016-12-07T02:30:02.860Z,0
2016-12-07T02:30:48.007Z,0
2016-12-07T02:32:02.896Z,0
2016-12-07T02:32:47.983Z,0
2016-12-07T02:33:48.004Z,0
2016-12-07T02:34:48.033Z,0
2016-12-07T02:35:48.023Z,0
2016-12-07T02:36:48.099Z,0
2016-12-07T02:37:48.071Z,0
2016-12-07T02:39:03.000Z,0
2016-12-07T02:39:48.101Z,0
2016-12-07T02:40:48.214Z,0
2016-12-07T02:41:48.134Z,0
2016-12-07T02:43:48.156Z,0
2016-12-07T02:44:48.187Z,0
2016-12-07T02:45:48.202Z,0
2016-12-07T02:46:48.200Z,0
2016-12-07T02:48:48.239Z,0
2016-12-07T02:49:48.253Z,0
2016-12-07T02:50:48.572Z,0
2016-12-07T02:51:48.595Z,0
2016-12-07T02:52:48.311Z,0
2016-12-07T02:53:48.324Z,0
2016-12-07T02:54:48.651Z,0
2016-12-07T02:55:48.351Z,0
2016-12-07T02:57:03.292Z,0
2016-12-07T02:57:48.383Z,0
2016-12-07T02:58:48.407Z,0
2016-12-07T03:00:03.341Z,0
2016-12-07T03:01:03.357Z,0
2016-12-07T03:01:48.448Z,0
2016-12-07T03:02:48.464Z,0
2016-12-07T03:03:48.788Z,0
2016-12-07T03:04:48.803Z,0
2016-12-07T03:05:48.541Z,0
2016-12-07T03:06:48.541Z,0
2016-12-07T03:07:48.555Z,0
2016-12-07T03:09:03.486Z,0
2016-12-07T03:09:48.581Z,0
2016-12-07T03:11:03.516Z,0
2016-12-07T03:12:03.549Z,0
2016-12-07T03:13:03.546Z,0
2016-12-07T03:14:03.568Z,0
2016-12-07T03:14:48.959Z,0
2016-12-07T03:15:48.680Z,0
2016-12-07T03:17:03.620Z,0
2016-12-07T03:17:48.715Z,0
2016-12-07T03:18:48.728Z,0
2016-12-07T03:20:48.765Z,0
2016-12-07T03:22:48.796Z,0
2016-12-07T03:23:48.808Z,0
2016-12-07T03:24:48.824Z,0
2016-12-07T03:25:48.835Z,0
2016-12-07T03:27:03.783Z,0
2016-12-07T03:27:48.873Z,0
2016-12-07T03:28:48.885Z,0
2016-12-07T03:29:48.909Z,0
2016-12-07T03:30:48.919Z,0
2016-12-07T03:31:48.946Z,0
2016-12-07T03:33:03.876Z,0
2016-12-07T03:33:48.974Z,0
2016-12-07T03:35:03.911Z,0
2016-12-07T03:35:49.002Z,0
2016-12-07T03:37:03.941Z,0
2016-12-07T03:39:12.446Z,0
2016-12-07T03:39:21.175Z,0
2016-12-07T03:40:21.045Z,0
2016-12-07T03:41:21.064Z,0
2016-12-07T03:42:21.080Z,0
2016-12-07T03:43:21.093Z,0
2016-12-07T03:44:21.116Z,0
2016-12-07T03:45:36.100Z,0
2016-12-07T03:46:36.061Z,0
2016-12-07T03:47:51.003Z,0
2016-12-07T03:48:36.142Z,0
2016-12-07T03:49:21.193Z,0
2016-12-07T03:50:21.213Z,0
2016-12-07T03:51:21.226Z,0
2016-12-07T03:52:21.240Z,0
2016-12-07T03:53:21.355Z,0
2016-12-07T03:54:21.271Z,0
2016-12-07T03:55:21.293Z,0
2016-12-07T03:56:36.222Z,0
2016-12-07T03:57:36.246Z,0
2016-12-07T03:58:21.334Z,0
2016-12-07T03:59:21.350Z,0
2016-12-07T04:00:21.363Z,0
2016-12-07T04:01:51.231Z,0
2016-12-07T04:02:21.404Z,0
2016-12-07T04:03:51.260Z,0
2016-12-07T04:04:21.433Z,0
2016-12-07T04:05:21.449Z,0
2016-12-07T04:06:21.463Z,0
2016-12-07T04:07:21.488Z,0
2016-12-07T04:08:36.421Z,0
2016-12-07T04:09:21.569Z,0
2016-12-07T04:10:21.532Z,0
2016-12-07T04:11:21.551Z,0
2016-12-07T04:12:21.589Z,0
2016-12-07T04:13:36.497Z,0
2016-12-07T04:14:21.910Z,0
2016-12-07T04:15:21.620Z,0
2016-12-07T04:16:21.621Z,0
2016-12-07T04:17:21.647Z,0
2016-12-07T04:18:21.657Z,0
2016-12-07T04:19:21.680Z,0
2016-12-07T04:20:21.690Z,0
2016-12-07T04:21:21.808Z,0
2016-12-07T04:22:21.728Z,0
2016-12-07T04:23:21.737Z,0
2016-12-07T04:24:36.982Z,0
2016-12-07T04:25:21.777Z,0
2016-12-07T04:26:21.787Z,0
2016-12-07T04:27:21.807Z,0
2016-12-07T04:28:22.129Z,0
2016-12-07T04:29:21.865Z,0
2016-12-07T04:30:36.777Z,0
2016-12-07T04:31:51.715Z,0
2016-12-07T04:32:36.809Z,0
2016-12-07T04:33:36.825Z,0
2016-12-07T04:34:36.838Z,0
2016-12-07T04:35:36.855Z,0
2016-12-07T04:36:21.953Z,0
2016-12-07T04:37:21.963Z,0
2016-12-07T04:38:21.979Z,0
2016-12-07T04:39:36.920Z,0
2016-12-07T04:40:22.013Z,0
2016-12-07T04:41:22.030Z,0
2016-12-07T04:42:22.046Z,0
2016-12-07T04:43:22.058Z,0
2016-12-07T04:44:22.075Z,0
2016-12-07T04:45:22.116Z,0
2016-12-07T04:46:37.030Z,0
2016-12-07T04:47:22.127Z,0
2016-12-07T04:48:22.138Z,0
2016-12-07T04:49:37.081Z,0
2016-12-07T04:50:22.177Z,0
2016-12-07T04:51:37.108Z,0
2016-12-07T04:52:22.211Z,0
2016-12-07T04:53:22.228Z,0
2016-12-07T04:54:22.234Z,0
2016-12-07T04:55:22.562Z,0
2016-12-07T04:56:22.269Z,0
2016-12-07T04:57:22.318Z,0
2016-12-07T04:58:22.308Z,0
2016-12-07T04:59:22.327Z,0
2016-12-07T05:00:22.333Z,0
2016-12-07T05:01:22.348Z,0
2016-12-07T05:02:22.360Z,0
2016-12-07T05:03:37.306Z,0
2016-12-07T05:04:22.405Z,0
2016-12-07T05:05:22.418Z,0
2016-12-07T05:06:22.431Z,0
2016-12-07T05:07:52.286Z,0
2016-12-07T05:08:22.764Z,0
2016-12-07T05:09:22.472Z,0
2016-12-07T05:10:22.541Z,0
2016-12-07T05:11:22.515Z,0
2016-12-07T05:12:37.447Z,0
2016-12-07T05:13:22.552Z,0
2016-12-07T05:14:22.552Z,0
2016-12-07T05:16:22.621Z,0
2016-12-07T05:17:22.652Z,0
2016-12-07T05:18:22.619Z,0
2016-12-07T05:19:22.633Z,0
2016-12-07T05:20:37.577Z,0
2016-12-07T05:21:22.669Z,0
2016-12-07T05:22:22.684Z,0
2016-12-07T05:23:37.618Z,0
2016-12-07T05:24:23.017Z,0
2016-12-07T05:25:22.744Z,0
2016-12-07T05:26:37.670Z,0
2016-12-07T05:27:37.685Z,0
2016-12-07T05:28:22.779Z,0
2016-12-07T05:29:22.792Z,0
2016-12-07T05:30:22.808Z,0
2016-12-07T05:31:22.852Z,0
2016-12-07T05:32:22.837Z,0
2016-12-07T05:33:22.862Z,0
2016-12-07T05:35:22.885Z,0
2016-12-07T05:36:22.918Z,0
2016-12-07T05:37:22.921Z,0
2016-12-07T05:38:37.861Z,0
2016-12-07T05:39:37.880Z,0
2016-12-07T05:40:22.969Z,0
2016-12-07T05:41:38.230Z,0
2016-12-07T05:42:23.005Z,0
2016-12-07T05:43:23.020Z,0
2016-12-07T05:44:23.035Z,0
2016-12-07T05:45:23.049Z,0
2016-12-07T05:46:23.074Z,0
2016-12-07T05:47:23.089Z,0
2016-12-07T05:48:23.095Z,0
2016-12-07T05:49:23.115Z,0
2016-12-07T05:50:23.124Z,0
2016-12-07T05:51:38.377Z,0
2016-12-07T05:52:23.161Z,0
2016-12-07T05:53:23.184Z,0
2016-12-07T05:54:23.197Z,0
2016-12-07T05:55:23.210Z,0
2016-12-07T05:56:23.223Z,0
2016-12-07T05:57:38.165Z,0
2016-12-07T05:58:23.259Z,0
2016-12-07T06:00:23.288Z,0
2016-12-07T06:01:23.301Z,0
2016-12-07T06:02:23.371Z,0
2016-12-07T06:03:23.342Z,0
2016-12-07T06:04:23.362Z,0
2016-12-07T06:05:38.290Z,0
2016-12-07T06:06:38.308Z,0
2016-12-07T06:07:38.324Z,0
2016-12-07T06:08:23.419Z,0
2016-12-07T06:09:23.433Z,0
2016-12-07T06:10:38.363Z,0
2016-12-07T06:11:23.461Z,0
2016-12-07T06:12:23.481Z,0
2016-12-07T06:13:23.818Z,0
2016-12-07T06:14:23.514Z,0
2016-12-07T06:15:23.530Z,0
2016-12-07T06:16:23.545Z,0
2016-12-07T06:17:23.557Z,0
2016-12-07T06:18:23.574Z,0
2016-12-07T06:19:38.515Z,0
2016-12-07T06:20:38.523Z,0
2016-12-07T06:21:23.623Z,0
2016-12-07T06:22:23.643Z,0
2016-12-07T06:23:23.657Z,0
2016-12-07T06:24:23.674Z,0
2016-12-07T06:25:23.697Z,0
2016-12-07T06:26:38.624Z,0
2016-12-07T06:27:24.028Z,0
2016-12-07T06:28:23.737Z,0
2016-12-07T06:29:23.749Z,0
2016-12-07T06:30:38.688Z,0
2016-12-07T06:31:23.780Z,0
2016-12-07T06:32:23.804Z,0
2016-12-07T06:33:23.825Z,0
2016-12-07T06:34:23.860Z,0
2016-12-07T06:35:23.842Z,0
2016-12-07T06:36:23.858Z,0
2016-12-07T06:37:24.183Z,0
2016-12-07T06:38:38.814Z,0
2016-12-07T06:39:23.906Z,0
2016-12-07T06:40:23.924Z,0
2016-12-07T06:41:23.938Z,0
2016-12-07T06:42:53.796Z,0
2016-12-07T06:43:38.890Z,0
2016-12-07T06:44:24.005Z,0
2016-12-07T06:45:24.003Z,0
2016-12-07T06:46:24.330Z,0
2016-12-07T06:47:38.956Z,0
2016-12-07T06:48:24.055Z,0
2016-12-07T06:49:24.071Z,0
2016-12-07T06:50:24.083Z,0
2016-12-07T06:51:24.102Z,0
2016-12-07T06:52:24.113Z,0
2016-12-07T06:53:24.134Z,0
2016-12-07T06:54:24.141Z,0
2016-12-07T06:56:24.179Z,0
2016-12-07T06:57:24.188Z,0
2016-12-07T06:58:39.131Z,0
2016-12-07T06:59:39.140Z,0
2016-12-07T07:00:24.236Z,0
2016-12-07T07:02:24.287Z,0
2016-12-07T07:03:24.291Z,0
2016-12-07T07:04:39.223Z,5
2016-12-07T07:05:24.321Z,5
2016-12-07T07:06:24.336Z,5
2016-12-07T07:07:39.268Z,5
2016-12-07T07:08:24.360Z,5
2016-12-07T07:09:24.386Z,5
2016-12-07T07:10:24.398Z,5
2016-12-07T07:11:24.415Z,5
2016-12-07T07:12:39.350Z,5
2016-12-07T07:13:39.362Z,5
2016-12-07T07:14:39.382Z,10
2016-12-07T07:15:24.473Z,10
2016-12-07T07:16:24.498Z,10
2016-12-07T07:17:24.497Z,10
2016-12-07T07:18:24.521Z,10
2016-12-07T07:19:24.535Z,5
2016-12-07T07:20:24.559Z,10
2016-12-07T07:21:24.569Z,10
2016-12-07T07:22:24.585Z,10
2016-12-07T07:23:24.601Z,10
2016-12-07T07:24:39.534Z,10
2016-12-07T07:25:24.633Z,10
2016-12-07T07:26:24.646Z,10
2016-12-07T07:28:24.682Z,10
2016-12-07T07:29:24.692Z,10
2016-12-07T07:30:24.711Z,10
2016-12-07T07:31:24.727Z,10
2016-12-07T07:32:24.746Z,10
2016-12-07T07:33:24.761Z,10
2016-12-07T07:34:24.774Z,10
2016-12-07T07:35:24.789Z,10
2016-12-07T07:36:24.812Z,10
2016-12-07T07:37:24.817Z,10
2016-12-07T07:38:24.831Z,10
2016-12-07T07:39:24.855Z,10
2016-12-07T07:40:24.861Z,10
2016-12-07T07:41:24.886Z,10
2016-12-07T07:42:39.816Z,10
2016-12-07T07:43:24.913Z,10
2016-12-07T07:44:24.931Z,10
2016-12-07T07:45:39.902Z,10
2016-12-07T07:46:24.963Z,10
2016-12-07T07:47:39.898Z,10
2016-12-07T07:48:24.995Z,10
2016-12-07T07:49:25.008Z,10
2016-12-07T07:50:25.029Z,10
2016-12-07T07:51:39.965Z,10
2016-12-07T07:52:25.056Z,10
2016-12-07T07:53:25.073Z,10
2016-12-07T07:54:25.086Z,15
2016-12-07T07:55:25.104Z,15
2016-12-07T07:56:25.113Z,15
2016-12-07T07:57:25.131Z,15
2016-12-07T07:58:25.162Z,15
2016-12-07T07:59:25.161Z,15
2016-12-07T08:00:25.187Z,20
2016-12-07T08:01:40.120Z,20
2016-12-07T08:02:40.132Z,20
2016-12-07T08:03:25.230Z,20
2016-12-07T08:04:25.240Z,20
2016-12-07T08:05:25.252Z,25
2016-12-07T08:06:40.201Z,25
2016-12-07T08:07:25.286Z,25
2016-12-07T08:08:25.308Z,25
2016-12-07T08:09:25.332Z,25
2016-12-07T08:11:25.350Z,30
2016-12-07T08:12:25.377Z,30
2016-12-07T08:13:25.394Z,30
2016-12-07T08:14:40.322Z,30
2016-12-07T08:15:40.364Z,30
2016-12-07T08:16:40.392Z,35
2016-12-07T08:17:40.367Z,35
2016-12-07T08:18:40.386Z,35
2016-12-07T08:19:25.479Z,35
2016-12-07T08:20:30.360Z,35
2016-12-07T08:21:25.547Z,35
2016-12-07T08:22:25.531Z,35
2016-12-07T08:23:25.549Z,35
2016-12-07T08:24:25.561Z,40
2016-12-07T08:25:25.582Z,40
2016-12-07T08:26:25.590Z,40
2016-12-07T08:27:25.607Z,40
2016-12-07T08:28:25.622Z,45
2016-12-07T08:30:25.653Z,45
2016-12-07T08:31:25.666Z,45
2016-12-07T08:32:40.611Z,45
2016-12-07T08:33:40.625Z,45
2016-12-07T08:34:25.727Z,45
2016-12-07T08:35:25.737Z,45
2016-12-07T08:36:25.747Z,45
2016-12-07T08:38:25.795Z,45
2016-12-07T08:39:25.789Z,45
2016-12-07T08:40:25.818Z,50
2016-12-07T08:41:25.848Z,50
2016-12-07T08:42:25.952Z,50
2016-12-07T08:43:25.863Z,50
2016-12-07T08:44:25.885Z,50
2016-12-07T08:45:25.893Z,50
2016-12-07T08:46:40.885Z,50
2016-12-07T08:47:26.240Z,50
2016-12-07T08:48:40.862Z,50
2016-12-07T08:49:25.957Z,50
2016-12-07T08:50:25.976Z,50
2016-12-07T08:51:25.993Z,50
2016-12-07T08:52:40.936Z,55
2016-12-07T08:53:26.026Z,55
2016-12-07T08:54:26.044Z,60
2016-12-07T08:55:26.047Z,60
2016-12-07T08:56:26.082Z,65
2016-12-07T08:57:26.112Z,65
2016-12-07T08:58:26.110Z,70
2016-12-07T08:59:26.124Z,70
2016-12-07T09:00:26.137Z,70
2016-12-07T09:01:41.076Z,70
2016-12-07T09:02:41.091Z,75
2016-12-07T09:03:26.221Z,80
2016-12-07T09:04:26.204Z,75
2016-12-07T09:05:41.139Z,75
2016-12-07T09:06:41.165Z,75
2016-12-07T09:07:26.253Z,80
2016-12-07T09:08:26.293Z,80
2016-12-07T09:09:26.289Z,80
2016-12-07T09:10:26.306Z,80
2016-12-07T09:11:26.321Z,80
2016-12-07T09:12:26.337Z,85
2016-12-07T09:14:26.366Z,90
2016-12-07T09:16:41.325Z,95
2016-12-07T09:17:41.334Z,95
2016-12-07T09:18:26.436Z,100
2016-12-07T09:19:26.450Z,100
2016-12-07T09:20:41.393Z,100
2016-12-07T09:21:26.480Z,95
2016-12-07T09:22:26.507Z,95
2016-12-07T09:23:41.430Z,95
2016-12-07T09:24:26.537Z,95
2016-12-07T09:25:26.553Z,100
2016-12-07T09:26:26.561Z,95
2016-12-07T09:27:26.637Z,95
2016-12-07T09:29:26.620Z,90
2016-12-07T09:30:26.659Z,90
2016-12-07T09:31:41.579Z,85
2016-12-07T09:32:26.714Z,85
2016-12-07T09:33:26.683Z,85
2016-12-07T09:34:26.700Z,80
2016-12-07T09:35:26.747Z,80
2016-12-07T09:36:41.663Z,80
2016-12-07T09:38:41.686Z,80
2016-12-07T09:39:41.710Z,80
2016-12-07T09:40:26.805Z,80
2016-12-07T09:41:26.820Z,80
2016-12-07T09:42:26.834Z,75
2016-12-07T09:43:26.849Z,75
2016-12-07T09:44:26.862Z,75
2016-12-07T09:45:26.888Z,75
2016-12-07T09:46:26.902Z,75
2016-12-07T09:47:26.975Z,75
2016-12-07T09:48:41.860Z,75
2016-12-07T09:49:26.953Z,70
2016-12-07T09:50:26.968Z,70
2016-12-07T09:51:27.013Z,75
2016-12-07T09:52:56.849Z,75
2016-12-07T09:53:27.022Z,70
2016-12-07T09:54:27.043Z,70
2016-12-07T09:55:27.060Z,70
2016-12-07T09:56:41.999Z,75
2016-12-07T09:57:42.027Z,80
2016-12-07T09:58:27.099Z,80
2016-12-07T09:59:27.457Z,75
2016-12-07T10:00:27.138Z,80
2016-12-07T10:01:27.162Z,85
2016-12-07T10:02:42.398Z,80
2016-12-07T10:03:27.184Z,80
2016-12-07T10:04:27.448Z,80
2016-12-07T10:05:42.146Z,80
2016-12-07T10:06:27.245Z,80
2016-12-07T10:07:27.251Z,85
2016-12-07T10:08:42.207Z,85
2016-12-07T10:09:27.288Z,85
2016-12-07T10:10:27.311Z,85
2016-12-07T10:11:27.329Z,90
2016-12-07T10:12:42.267Z,95
2016-12-07T10:13:27.366Z,90
2016-12-07T10:14:27.378Z,90
2016-12-07T10:15:27.398Z,90
2016-12-07T10:16:27.414Z,95
2016-12-07T10:17:27.459Z,95
2016-12-07T10:18:27.439Z,100
2016-12-07T10:19:27.488Z,100
2016-12-07T10:20:27.480Z,95
2016-12-07T10:21:42.416Z,90
2016-12-07T10:22:42.761Z,90
2016-12-07T10:23:42.452Z,95
2016-12-07T10:24:27.582Z,95
2016-12-07T10:25:27.568Z,95
2016-12-07T10:26:27.583Z,95
2016-12-07T10:27:27.910Z,100
2016-12-07T10:28:27.625Z,95
2016-12-07T10:30:27.654Z,105
2016-12-07T10:31:42.588Z,95
2016-12-07T10:32:27.691Z,95
2016-12-07T10:33:27.697Z,110
2016-12-07T10:34:27.710Z,105
2016-12-07T10:35:42.660Z,95
2016-12-07T10:36:27.755Z,95
2016-12-07T10:37:27.766Z,95
2016-12-07T10:38:27.788Z,100
2016-12-07T10:39:42.732Z,95
2016-12-07T10:40:27.815Z,90
2016-12-07T10:41:27.837Z,95
2016-12-07T10:42:27.849Z,95
2016-12-07T10:43:27.868Z,90
2016-12-07T10:44:42.810Z,90
2016-12-07T10:45:28.221Z,90
2016-12-07T10:47:27.933Z,85
2016-12-07T10:48:27.950Z,85
2016-12-07T10:50:27.988Z,85
2016-12-07T10:51:43.078Z,85
2016-12-07T10:52:42.949Z,85
2016-12-07T10:53:42.966Z,85
2016-12-07T10:54:28.060Z,85
2016-12-07T10:55:43.004Z,85
2016-12-07T10:56:57.938Z,85
2016-12-07T10:57:28.104Z,85
2016-12-07T10:58:43.044Z,90
2016-12-07T10:59:28.140Z,85
2016-12-07T11:00:28.166Z,80
2016-12-07T11:01:28.177Z,85
2016-12-07T11:02:28.188Z,85
2016-12-07T11:03:43.134Z,85
2016-12-07T11:04:28.227Z,85
2016-12-07T11:05:28.246Z,85
2016-12-07T11:06:28.268Z,85
2016-12-07T11:07:28.276Z,80
2016-12-07T11:08:28.327Z,80
2016-12-07T11:09:58.163Z,85
2016-12-07T11:10:28.333Z,85
2016-12-07T11:11:43.269Z,85
2016-12-07T11:12:28.369Z,85
2016-12-07T11:13:43.346Z,85
2016-12-07T11:14:28.399Z,85
2016-12-07T11:15:28.715Z,85
2016-12-07T11:16:28.725Z,85
2016-12-07T11:17:28.454Z,85
2016-12-07T11:18:28.468Z,85
2016-12-07T11:19:28.788Z,85
2016-12-07T11:20:28.500Z,95
2016-12-07T11:21:28.526Z,90
2016-12-07T11:22:28.530Z,85
2016-12-07T11:23:43.510Z,90
2016-12-07T11:24:43.791Z,85
2016-12-07T11:26:28.606Z,85
2016-12-07T11:27:43.543Z,90
2016-12-07T11:28:28.636Z,90
2016-12-07T11:29:28.660Z,85
2016-12-07T11:30:28.678Z,85
2016-12-07T11:31:28.997Z,85
2016-12-07T11:32:28.704Z,80
2016-12-07T11:33:28.738Z,80
2016-12-07T11:34:28.740Z,80
2016-12-07T11:35:28.761Z,75
2016-12-07T11:36:28.766Z,75
2016-12-07T11:37:28.797Z,75
2016-12-07T11:38:28.807Z,75
2016-12-07T11:39:28.840Z,75
2016-12-07T11:40:28.844Z,75
2016-12-07T11:41:28.863Z,80
2016-12-07T11:42:58.776Z,80
2016-12-07T11:43:43.820Z,80
2016-12-07T11:44:28.920Z,80
2016-12-07T11:45:28.933Z,80
2016-12-07T11:47:28.968Z,75
2016-12-07T11:48:43.939Z,75
2016-12-07T11:49:28.994Z,75
2016-12-07T11:50:29.017Z,75
2016-12-07T11:51:29.028Z,75
2016-12-07T11:53:29.071Z,75
2016-12-07T11:54:29.382Z,75
2016-12-07T11:55:29.096Z,75
2016-12-07T11:56:29.125Z,75
2016-12-07T11:57:58.985Z,75
2016-12-07T11:58:44.074Z,75
2016-12-07T11:59:29.171Z,75
2016-12-07T12:00:59.032Z,80
2016-12-07T12:01:44.133Z,85
2016-12-07T12:02:29.225Z,90
2016-12-07T12:03:29.249Z,85
2016-12-07T12:04:29.253Z,85
2016-12-07T12:05:44.210Z,80
2016-12-07T12:06:29.290Z,80
2016-12-07T12:07:44.231Z,80
2016-12-07T12:08:29.337Z,75
2016-12-07T12:09:44.267Z,70
2016-12-07T12:10:29.365Z,70
2016-12-07T12:12:44.625Z,70
2016-12-07T12:13:29.416Z,75
2016-12-07T12:14:44.349Z,75
2016-12-07T12:15:29.449Z,80
2016-12-07T12:16:29.472Z,80
2016-12-07T12:17:29.485Z,85
2016-12-07T12:18:29.504Z,85
2016-12-07T12:19:29.527Z,90
2016-12-07T12:20:29.541Z,90
2016-12-07T12:21:29.577Z,90
2016-12-07T12:22:29.574Z,95
2016-12-07T12:23:29.592Z,95
2016-12-07T12:24:29.632Z,95
2016-12-07T12:25:29.628Z,95
2016-12-07T12:26:29.643Z,100
2016-12-07T12:27:29.657Z,100
2016-12-07T12:29:29.695Z,95
2016-12-07T12:30:44.638Z,95
2016-12-07T12:31:29.737Z,95
2016-12-07T12:32:29.752Z,95
2016-12-07T12:33:29.772Z,95
2016-12-07T12:34:29.788Z,95
2016-12-07T12:35:29.802Z,95
2016-12-07T12:36:29.822Z,95
2016-12-07T12:37:29.845Z,85
2016-12-07T12:38:29.856Z,75
2016-12-07T12:39:29.875Z,70
2016-12-07T12:40:29.891Z,70
2016-12-07T12:41:29.916Z,70
2016-12-07T12:42:29.923Z,65
2016-12-07T12:43:29.958Z,55
2016-12-07T12:44:59.812Z,55
2016-12-07T12:45:29.986Z,55
2016-12-07T12:46:44.926Z,55
2016-12-07T12:47:30.033Z,50
2016-12-07T12:48:30.035Z,50
2016-12-07T12:50:30.070Z,50
2016-12-07T12:51:30.086Z,45
2016-12-07T12:52:30.112Z,45
2016-12-07T12:53:30.146Z,45
2016-12-07T12:54:30.194Z,45
2016-12-07T12:55:45.086Z,40
2016-12-07T12:56:30.175Z,40
2016-12-07T12:57:30.215Z,40
2016-12-07T12:58:30.221Z,40
2016-12-07T12:59:30.594Z,40
2016-12-07T13:00:30.550Z,45
2016-12-07T13:01:30.275Z,45
2016-12-07T13:02:45.206Z,45
2016-12-07T13:03:30.313Z,45
2016-12-07T13:05:45.267Z,50
2016-12-07T13:06:45.282Z,50
2016-12-07T13:07:30.370Z,50
2016-12-07T13:08:45.315Z,50
2016-12-07T13:09:30.413Z,50
2016-12-07T13:10:30.435Z,50
2016-12-07T13:11:30.460Z,50
2016-12-07T13:12:30.459Z,50
2016-12-07T13:14:30.501Z,50
2016-12-07T13:15:30.514Z,50
2016-12-07T13:16:30.533Z,50
2016-12-07T13:17:30.552Z,50
2016-12-07T13:18:45.488Z,50
2016-12-07T13:19:45.530Z,45
2016-12-07T13:20:30.614Z,45
2016-12-07T13:21:30.628Z,45
2016-12-07T13:22:30.640Z,45
2016-12-07T13:23:30.661Z,45
2016-12-07T13:24:31.014Z,45
2016-12-07T13:26:30.708Z,40
2016-12-07T13:27:30.732Z,40
2016-12-07T13:28:30.749Z,35
2016-12-07T13:30:45.702Z,30
2016-12-07T13:31:30.811Z,30
2016-12-07T13:32:30.819Z,25
2016-12-07T13:33:45.753Z,25
2016-12-07T13:34:45.783Z,25
2016-12-07T13:35:30.876Z,25
2016-12-07T13:36:30.892Z,20
2016-12-07T13:37:30.909Z,20
2016-12-07T13:38:30.930Z,20
2016-12-07T13:39:30.948Z,20
2016-12-07T13:40:30.962Z,20
2016-12-07T13:41:30.988Z,15
2016-12-07T13:42:30.993Z,15
2016-12-07T13:43:31.021Z,15
2016-12-07T13:44:31.030Z,15
2016-12-07T13:45:31.053Z,15
2016-12-07T13:46:31.071Z,15
2016-12-07T13:47:31.387Z,15
2016-12-07T13:48:31.107Z,15
2016-12-07T13:49:46.359Z,15
2016-12-07T13:50:31.140Z,15
2016-12-07T13:51:31.190Z,15
2016-12-07T13:52:31.179Z,15
2016-12-07T13:53:31.189Z,15
2016-12-07T13:54:31.261Z,15
2016-12-07T13:55:31.231Z,15
2016-12-07T13:56:46.225Z,15
2016-12-07T13:57:31.263Z,15
2016-12-07T13:58:46.200Z,10
2016-12-07T13:59:31.291Z,10
2016-12-07T14:00:31.313Z,10
2016-12-07T14:01:31.338Z,10
2016-12-07T14:02:31.348Z,10
2016-12-07T14:03:31.374Z,10
2016-12-07T14:05:46.330Z,10
2016-12-07T14:06:31.428Z,10
2016-12-07T14:07:46.664Z,10
2016-12-07T14:08:46.370Z,10
2016-12-07T14:09:46.422Z,10
2016-12-07T14:10:31.483Z,10
2016-12-07T14:11:31.506Z,10
2016-12-07T14:12:31.517Z,10
2016-12-07T14:13:31.536Z,10
2016-12-07T14:14:31.557Z,10
2016-12-07T14:15:31.577Z,10
2016-12-07T14:16:31.593Z,10
2016-12-07T14:17:31.616Z,10
2016-12-07T14:18:31.643Z,10
2016-12-07T14:19:46.614Z,10
2016-12-07T14:20:31.664Z,10
2016-12-07T14:21:46.599Z,10
2016-12-07T14:22:31.699Z,10
2016-12-07T14:23:31.709Z,10
2016-12-07T14:24:31.741Z,10
2016-12-07T14:25:31.747Z,10
2016-12-07T14:26:31.763Z,5
2016-12-07T14:27:31.776Z,5
2016-12-07T14:28:46.724Z,5
2016-12-07T14:29:31.820Z,5
2016-12-07T14:30:46.756Z,5
2016-12-07T14:31:46.771Z,5
2016-12-07T14:32:31.868Z,5
2016-12-07T14:33:46.811Z,5
2016-12-07T14:34:32.200Z,5
2016-12-07T14:35:32.320Z,5
2016-12-07T14:36:31.943Z,5
2016-12-07T14:37:46.884Z,0
2016-12-07T14:38:31.961Z,0
2016-12-07T14:39:31.992Z,0
2016-12-07T14:40:32.006Z,0
2016-12-07T14:41:32.026Z,0
2016-12-07T14:42:32.071Z,0
2016-12-07T14:43:32.065Z,0
2016-12-07T14:44:32.076Z,0
2016-12-07T14:45:32.088Z,0
2016-12-07T14:46:32.111Z,0
2016-12-07T14:47:32.126Z,0
2016-12-07T14:48:32.146Z,0
2016-12-07T14:49:32.162Z,0
2016-12-07T14:50:32.184Z,0
2016-12-07T14:51:32.198Z,0
2016-12-07T14:52:32.235Z,0
2016-12-07T14:53:47.152Z,0
2016-12-07T14:55:32.277Z,0
2016-12-07T14:56:32.293Z,0
2016-12-07T14:57:32.299Z,0
2016-12-07T14:58:32.318Z,0
2016-12-07T14:59:47.255Z,0
2016-12-07T15:00:32.346Z,0
2016-12-07T15:01:32.360Z,0
2016-12-07T15:02:32.385Z,0
2016-12-07T15:03:32.398Z,0
2016-12-07T15:04:32.420Z,0
2016-12-07T15:05:47.352Z,0
2016-12-07T15:06:47.376Z,0
2016-12-07T15:07:32.475Z,0
2016-12-07T15:08:47.410Z,0
2016-12-07T15:09:32.512Z,0
2016-12-07T15:10:32.531Z,0